Time;durP1;ratioP1;P1;durP2;ratioP2;P2;SDS_P1;SDS_P2;PMS_P1;PMS_P2;Temp;Humidity;BMP_temperature;BMP_pressure;BME280_temperature;BME280_humidity;BME280_pressure;Samples;Min_cycle;Max_cycle;Signal;HPM_P1;HPM_P2
2022/05/28 00:00:14;;;;;;;;;;;13.24;22.39;;;;;;2673552;76;20413;-91
2022/05/28 00:03:46;;;;;;;;;;;13.20;21.79;;;;;;2673422;76;20541;-92
2022/05/28 00:07:19;;;;;;;8.28;1.92;;;13.17;21.74;;;;;;2672879;76;21534;-90
2022/05/28 00:10:51;;;;;;;;;;;13.12;22.11;;;;;;2673169;76;22556;-91
2022/05/28 00:14:24;;;;;;;;;;;13.11;21.55;;;;;;2673658;76;20746;-90
2022/05/28 00:17:58;;;;;;;;;;;13.14;21.76;;;;;;2673352;76;20945;-89
2022/05/28 00:21:30;;;;;;;;;;;13.21;22.98;;;;;;2672339;76;20410;-87
2022/05/28 00:25:04;;;;;;;4.97;2.15;;;13.27;24.20;;;;;;2671834;76;21090;-86
2022/05/28 00:28:36;;;;;;;;;;;13.39;25.01;;;;;;2672575;76;22374;-87
2022/05/28 00:32:09;;;;;;;;;;;13.51;25.46;;;;;;2671957;76;20533;-87
2022/05/28 00:35:41;;;;;;;;;;;13.61;25.75;;;;;;2672510;76;20440;-87
2022/05/28 00:39:14;;;;;;;4.37;2.22;;;13.65;26.06;;;;;;2670447;76;21191;-86
2022/05/28 00:42:47;;;;;;;;;;;13.65;26.17;;;;;;2672310;76;22323;-87
2022/05/28 00:46:19;;;;;;;;;;;13.75;26.30;;;;;;2672824;76;20502;-87
2022/05/28 00:49:51;;;;;;;;;;;13.74;26.20;;;;;;2671340;76;20822;-86
2022/05/28 00:53:25;;;;;;;5.92;1.87;;;13.75;26.17;;;;;;2672325;76;21131;-85
2022/05/28 00:56:58;;;;;;;;;;;13.70;26.17;;;;;;2672460;76;22466;-85
2022/05/28 01:00:30;;;;;;;;;;;13.68;25.60;;;;;;2671968;76;20367;-87
2022/05/28 01:04:03;;;;;;;;;;;13.60;25.25;;;;;;2672438;76;20500;-87
2022/05/28 01:07:43;;;;;;;4.20;1.52;;;13.60;25.11;;;;;;2671665;76;21124;-87
2022/05/28 01:11:21;;;;;;;2.47;1.30;;;13.58;25.01;;;;;;2672370;76;22450;-86
2022/05/28 01:14:56;;;;;;;1.70;1.30;;;13.58;25.20;;;;;;2672153;76;22290;-87
2022/05/28 01:18:28;;;;;;;;;;;13.63;25.20;;;;;;2672006;76;22158;-87
2022/05/28 01:22:01;;;;;;;;;;;13.56;24.78;;;;;;2672026;76;22175;-88
2022/05/28 01:25:33;;;;;;;;;;;13.52;24.69;;;;;;2671855;76;20593;-87
2022/05/28 01:29:06;;;;;;;;;;;13.50;24.99;;;;;;2670842;76;21158;-85
2022/05/28 01:32:39;;;;;;;2.50;1.35;;;13.52;24.76;;;;;;2672229;76;20564;-87
2022/05/28 01:36:11;;;;;;;;;;;13.50;24.72;;;;;;2672389;76;22223;-88
2022/05/28 01:39:46;;;;;;;;;;;13.48;24.65;;;;;;2671769;76;20401;-88
2022/05/28 01:43:18;;;;;;;;;;;13.39;24.60;;;;;;2672648;76;20489;-85
2022/05/28 01:46:50;;;;;;;;;;;13.39;24.36;;;;;;2672188;76;20501;-83
2022/05/28 01:50:25;;;;;;;2.45;1.62;;;13.31;24.37;;;;;;2670887;76;21137;-87
2022/05/28 01:54:14;;;;;;;;;;;13.19;24.06;;;;;;2672274;76;22607;-87
2022/05/28 01:57:45;;;;;;;2.60;1.53;;;13.08;24.36;;;;;;2671728;76;22216;-87
2022/05/28 02:01:17;;;;;;;;;;;13.06;24.69;;;;;;2672800;76;22302;-87
2022/05/28 02:04:50;;;;;;;;;;;13.10;24.85;;;;;;2672908;76;20890;-87
2022/05/28 02:08:22;;;;;;;;;;;13.19;24.85;;;;;;2671696;76;20480;-86
2022/05/28 02:11:58;;;;;;;7.30;1.95;;;13.25;24.65;;;;;;2671024;76;21034;-87
2022/05/28 02:15:30;;;;;;;;;;;13.26;24.49;;;;;;2672430;76;22336;-86
2022/05/28 02:19:02;;;;;;;;;;;13.30;24.62;;;;;;2672091;76;22252;-87
2022/05/28 02:22:35;;;;;;;;;;;13.30;24.58;;;;;;2671777;76;20530;-86
2022/05/28 02:26:07;;;;;;;;;;;13.35;24.63;;;;;;2672363;76;20553;-87
2022/05/28 02:29:41;;;;;;;3.05;1.95;;;13.33;24.37;;;;;;2671142;76;21065;-88
2022/05/28 02:33:13;;;;;;;;;;;13.30;24.09;;;;;;2672768;76;22330;-85
2022/05/28 02:36:46;;;;;;;;;;;13.36;24.17;;;;;;2671340;76;20551;-85
2022/05/28 02:40:18;;;;;;;;;;;13.37;23.75;;;;;;2673488;76;20553;-85
2022/05/28 02:43:52;;;;;;;6.70;1.87;;;13.36;23.22;;;;;;2672631;76;21477;-85
2022/05/28 02:47:25;;;;;;;;;;;13.48;23.14;;;;;;2671347;76;22372;-87
2022/05/28 02:50:57;;;;;;;;;;;13.43;22.19;;;;;;2673538;76;20546;-87
2022/05/28 02:54:30;;;;;;;;;;;13.40;21.46;;;;;;2672523;76;20559;-87
2022/05/28 02:58:03;;;;;;;4.20;2.10;;;13.44;21.22;;;;;;2671492;76;21685;-86
2022/05/28 03:01:35;;;;;;;;;;;13.39;19.96;;;;;;2673179;76;22228;-86
2022/05/28 03:05:08;;;;;;;;;;;13.36;19.64;;;;;;2672648;76;20568;-84
2022/05/28 03:08:40;;;;;;;;;;;13.38;19.74;;;;;;2671649;76;20558;-85
2022/05/28 03:12:13;;;;;;;4.67;1.98;;;13.40;19.76;;;;;;2672508;76;21111;-86
2022/05/28 03:15:45;;;;;;;;;;;13.44;19.63;;;;;;2672976;76;22832;-87
2022/05/28 03:19:18;;;;;;;;;;;13.40;19.86;;;;;;2673077;76;20572;-88
2022/05/28 03:22:50;;;;;;;;;;;13.32;20.33;;;;;;2672334;76;20531;-84
2022/05/28 03:26:28;;;;;;;8.60;2.58;;;13.29;20.73;;;;;;2671990;76;21156;-87
2022/05/28 03:30:01;;;;;;;2.35;1.35;;;13.26;18.44;;;;;;2673006;76;22167;-88
2022/05/28 03:33:33;;;;;;;;;;;13.17;17.41;;;;;;2672968;76;22349;-86
2022/05/28 03:37:06;;;;;;;;;;;13.12;15.62;;;;;;2672919;76;20548;-86
2022/05/28 03:40:38;;;;;;;;;;;13.09;15.21;;;;;;2672919;76;20499;-85
2022/05/28 03:44:11;;;;;;;6.58;2.60;;;13.14;15.35;;;;;;2671947;76;21490;-85
2022/05/28 03:47:43;;;;;;;;;;;13.06;14.71;;;;;;2672886;76;22745;-85
2022/05/28 03:51:16;;;;;;;;;;;13.08;14.61;;;;;;2672132;76;20567;-87
2022/05/28 03:54:48;;;;;;;;;;;13.02;13.33;;;;;;2672706;76;20556;-85
2022/05/28 03:58:21;;;;;;;5.60;1.87;;;13.01;12.80;;;;;;2672248;76;21137;-85
2022/05/28 04:01:54;;;;;;;;;;;12.99;12.62;;;;;;2672993;76;22234;-87
2022/05/28 04:05:26;;;;;;;;;;;13.03;12.39;;;;;;2672988;76;20536;-87
2022/05/28 04:08:59;;;;;;;;;;;13.01;11.20;;;;;;2672008;76;20545;-87
2022/05/28 04:12:32;;;;;;;5.78;2.30;;;13.02;11.16;;;;;;2672617;76;21145;-87
2022/05/28 04:16:05;;;;;;;;;;;12.99;10.86;;;;;;2672883;76;22316;-86
2022/05/28 04:19:37;;;;;;;;;;;12.95;10.36;;;;;;2672777;76;20529;-87
2022/05/28 04:23:10;;;;;;;;;;;12.89;9.43;;;;;;2672901;76;20492;-85
2022/05/28 04:26:43;;;;;;;6.90;2.10;;;12.76;7.77;;;;;;2671989;76;21595;-85
2022/05/28 04:30:15;;;;;;;;;;;12.65;7.05;;;;;;2672943;76;22850;-87
2022/05/28 04:33:48;;;;;;;;;;;12.51;5.83;;;;;;2673015;76;20557;-85
2022/05/28 04:37:20;;;;;;;;;;;12.38;4.56;;;;;;2672772;76;20526;-87
2022/05/28 04:40:53;;;;;;;3.67;1.50;;;12.43;4.13;;;;;;2670518;76;21140;-87
2022/05/28 04:44:26;;;;;;;;;;;12.34;3.60;;;;;;2672901;76;22352;-86
2022/05/28 04:47:58;;;;;;;;;;;12.34;3.04;;;;;;2671763;76;20552;-86
2022/05/28 04:51:31;;;;;;;;;;;12.38;2.65;;;;;;2671682;76;20499;-87
2022/05/28 04:55:04;;;;;;;5.85;1.42;;;12.46;2.19;;;;;;2670013;76;21720;-85
2022/05/28 04:58:36;;;;;;;;;;;12.59;1.93;;;;;;2669709;76;22290;-86
2022/05/28 05:02:09;;;;;;;;;;;12.51;1.12;;;;;;2667618;76;20773;-86
2022/05/28 05:05:41;;;;;;;;;;;12.57;0.22;;;;;;2670032;76;20487;-86
2022/05/28 05:09:14;;;;;;;5.90;1.87;;;12.51;0.20;;;;;;2669439;76;21694;-86
2022/05/28 05:12:47;;;;;;;;;;;12.35;-0.23;;;;;;2671925;76;22683;-86
2022/05/28 05:16:19;;;;;;;;;;;12.33;-0.31;;;;;;2671472;76;20566;-85
2022/05/28 05:19:51;;;;;;;;;;;12.38;-0.00;;;;;;2670684;76;20533;-87
2022/05/28 05:23:25;;;;;;;8.50;1.52;;;12.50;-0.81;;;;;;2669869;76;21160;-87
2022/05/28 05:26:57;;;;;;;;;;;12.62;-0.79;;;;;;2670617;76;22961;-87
2022/05/28 05:30:30;;;;;;;;;;;12.82;-1.22;;;;;;2670608;76;20518;-88
2022/05/28 05:34:04;;;;;;;;;;;12.91;-2.32;;;;;;2668689;76;20852;-87
2022/05/28 05:37:36;;;;;;;;;;;13.05;-3.85;;;;;;2671439;76;20591;-87
2022/05/28 05:41:10;;;;;;;6.80;1.10;;;13.27;-3.96;;;;;;2669669;76;21244;-86
2022/05/28 05:44:42;;;;;;;;;;;13.43;-4.28;;;;;;2670687;76;22171;-85
2022/05/28 05:48:14;;;;;;;;;;;13.82;-5.64;;;;;;2670632;76;20505;-84
2022/05/28 05:51:47;;;;;;;;;;;14.03;118.67;;;;;;2670319;76;20649;-84
2022/05/28 05:55:20;;;;;;;6.75;1.02;;;14.03;117.73;;;;;;2671950;76;21144;-86
2022/05/28 05:58:52;;;;;;;;;;;14.37;117.66;;;;;;2671930;76;22166;-86
2022/05/28 06:02:25;;;;;;;;;;;14.38;117.06;;;;;;2672436;76;20494;-85
2022/05/28 06:05:57;;;;;;;;;;;14.24;117.18;;;;;;2672770;76;20537;-86
2022/05/28 06:09:30;;;;;;;6.72;1.70;;;14.49;116.76;;;;;;2672330;76;21538;-84
2022/05/28 06:13:03;;;;;;;;;;;14.85;115.92;;;;;;2671939;76;22249;-85
2022/05/28 06:16:35;;;;;;;;;;;15.04;115.12;;;;;;2671727;76;20527;-85
2022/05/28 06:20:08;;;;;;;;;;;15.27;114.61;;;;;;2671810;76;20552;-84
2022/05/28 06:23:45;;;;;;;7.15;1.62;;;15.27;114.36;;;;;;2672618;76;21133;-90
2022/05/28 06:27:15;;;;;;;;;;;15.30;114.56;;;;;;2673184;76;22804;-90
2022/05/28 06:30:49;;;;;;;;;;;15.59;114.93;;;;;;2672774;76;22260;-90
2022/05/28 06:34:22;;;;;;;;;;;15.55;113.23;;;;;;2673216;76;20411;-90
2022/05/28 06:37:54;;;;;;;;;;;15.60;113.75;;;;;;2672945;76;20377;-91
2022/05/28 06:41:27;;;;;;;5.37;1.37;;;15.65;113.59;;;;;;2670980;76;21125;-91
2022/05/28 06:45:00;;;;;;;;;;;15.47;110.07;;;;;;2671878;76;22341;-91
2022/05/28 06:48:32;;;;;;;;;;;15.66;111.39;;;;;;2672602;76;20556;-92
2022/05/28 06:52:04;;;;;;;;;;;15.65;111.07;;;;;;2672588;76;20422;-90
2022/05/28 06:55:38;;;;;;;7.47;1.72;;;15.27;111.51;;;;;;2672189;76;21466;-89
2022/05/28 06:59:10;;;;;;;;;;;15.06;110.71;;;;;;2673000;76;22388;-90
2022/05/28 07:02:43;;;;;;;;;;;15.02;110.90;;;;;;2672284;76;20591;-90
2022/05/28 07:06:15;;;;;;;;;;;15.71;110.93;;;;;;2672895;76;20427;-91
2022/05/28 07:09:48;;;;;;;5.78;1.30;;;15.51;108.86;;;;;;2672023;76;21536;-90
2022/05/28 07:13:21;;;;;;;;;;;15.28;108.39;;;;;;2672487;76;22507;-91
2022/05/28 07:16:53;;;;;;;;;;;15.54;107.08;;;;;;2673746;76;20423;-91
2022/05/28 07:20:26;;;;;;;;;;;15.07;107.39;;;;;;2673146;76;20861;-90
2022/05/28 07:23:59;;;;;;;7.85;1.30;;;14.54;107.20;;;;;;2672589;76;21178;-90
2022/05/28 07:27:31;;;;;;;;;;;14.38;108.23;;;;;;2673818;76;22426;-89
2022/05/28 07:31:06;;;;;;;;;;;14.27;107.98;;;;;;2673247;76;20507;-90
2022/05/28 07:34:38;;;;;;;;;;;14.17;108.94;;;;;;2672288;76;20511;-91
2022/05/28 07:38:10;;;;;;;;;;;14.24;110.35;;;;;;2673098;76;20435;-91
2022/05/28 07:41:43;;;;;;;8.88;1.55;;;14.59;108.53;;;;;;2672927;76;21040;-91
2022/05/28 07:45:16;;;;;;;;;;;15.01;107.33;;;;;;2673151;76;22526;-91
2022/05/28 07:48:48;;;;;;;;;;;15.11;106.30;;;;;;2672936;76;20568;-91
2022/05/28 07:52:21;;;;;;;;;;;15.25;103.91;;;;;;2673335;76;20557;-91
2022/05/28 07:55:54;;;;;;;4.58;0.78;;;15.17;101.07;;;;;;2672930;76;21538;-90
2022/05/28 07:59:26;;;;;;;;;;;14.71;101.09;;;;;;2672711;76;22868;-91
2022/05/28 08:02:59;;;;;;;;;;;14.50;102.89;;;;;;2673035;76;20553;-91
2022/05/28 08:06:31;;;;;;;;;;;14.42;103.82;;;;;;2672801;76;20519;-91
2022/05/28 08:10:05;;;;;;;5.10;0.90;;;14.43;103.66;;;;;;2672137;76;20978;-91
2022/05/28 08:13:37;;;;;;;;;;;14.55;101.57;;;;;;2672667;76;22773;-90
2022/05/28 08:17:09;;;;;;;;;;;14.43;99.66;;;;;;2672726;76;20429;-91
2022/05/28 08:24:33;;;;;;;2.22;0.85;;;14.33;100.70;;;;;;2672193;76;20426;-91
2022/05/28 08:28:05;;;;;;;;;;;14.14;99.27;;;;;;2672740;76;22396;-90
2022/05/28 08:31:38;;;;;;;;;;;14.20;100.41;;;;;;2673022;76;20516;-92
2022/05/28 08:35:10;;;;;;;;;;;14.21;98.65;;;;;;2672837;76;20890;-90
2022/05/28 08:38:44;;;;;;;6.62;1.25;;;14.14;99.19;;;;;;2672181;76;21139;-91
2022/05/28 08:42:16;;;;;;;;;;;14.19;99.83;;;;;;2672687;76;22864;-91
2022/05/28 08:45:49;;;;;;;;;;;14.23;100.15;;;;;;2672583;76;20534;-91
2022/05/28 08:49:21;;;;;;;;;;;14.27;99.51;;;;;;2673030;76;20416;-91
2022/05/28 08:52:56;;;;;;;6.83;0.98;;;14.24;99.83;;;;;;2671783;76;21191;-92
2022/05/28 08:56:29;;;;;;;;;;;14.14;98.71;;;;;;2673021;76;22467;-90
2022/05/28 09:00:01;;;;;;;;;;;14.24;98.61;;;;;;2672833;76;20517;-92
2022/05/28 09:03:34;;;;;;;;;;;14.28;99.38;;;;;;2672368;76;20427;-91
2022/05/28 09:07:06;;;;;;;;;;;14.40;99.80;;;;;;2673119;76;20722;-91
2022/05/28 09:10:46;;;;;;;1.42;0.35;;;14.48;98.74;;;;;;2672427;76;21018;-91
2022/05/28 09:14:27;;;;;;;0.67;0.27;;;14.65;98.22;;;;;;2672471;76;22593;-91
2022/05/28 09:18:00;;;;;;;2.72;0.20;;;14.68;96.91;;;;;;2672915;76;22428;-91
2022/05/28 09:21:32;;;;;;;;;;;14.68;99.36;;;;;;2673516;76;22788;-91
2022/05/28 09:25:05;;;;;;;;;;;14.75;97.49;;;;;;2672971;76;20521;-91
2022/05/28 09:28:37;;;;;;;;;;;14.74;98.90;;;;;;2672264;76;20551;-91
2022/05/28 09:32:21;;;;;;;3.83;0.70;;;14.91;99.14;;;;;;2672440;76;21143;-91
2022/05/28 09:36:12;;;;;;;3.37;0.65;;;15.30;98.65;;;;;;2671886;76;22893;-91
2022/05/28 09:39:47;;;;;;;4.45;0.72;;;15.46;97.61;;;;;;2671591;76;22499;-91
2022/05/28 09:43:19;;;;;;;;;;;15.28;96.92;;;;;;2671885;76;22412;-91
2022/05/28 09:46:52;;;;;;;;;;;15.26;97.23;;;;;;2671276;76;20526;-92
2022/05/28 09:50:25;;;;;;;;;;;15.60;98.20;;;;;;2673088;76;20534;-91
2022/05/28 09:57:56;;;;;;;4.03;0.68;;;15.97;96.87;;;;;;2672613;76;20504;-92
2022/05/28 10:01:29;;;;;;;2.00;0.57;;;15.95;96.75;;;;;;2673098;76;22463;-91
2022/05/28 10:05:01;;;;;;;;;;;15.91;94.67;;;;;;2673372;76;22442;-91
2022/05/28 10:08:34;;;;;;;;;;;16.14;94.80;;;;;;2673117;76;20526;-91
2022/05/28 10:12:06;;;;;;;;;;;16.36;94.20;;;;;;2672281;76;20417;-92
2022/05/28 10:15:46;;;;;;;2.50;0.47;;;16.42;94.46;;;;;;2672574;76;21002;-91
2022/05/28 10:19:20;;;;;;;2.65;0.50;;;16.72;95.08;;;;;;2672432;76;22923;-92
2022/05/28 10:22:53;;;;;;;;;;;16.85;93.77;;;;;;2672457;76;22323;-91
2022/05/28 10:26:30;;;;;;;;;;;17.02;93.63;;;;;;2673060;76;20381;-92
2022/05/28 10:30:02;;;;;;;;;;;17.05;92.53;;;;;;2672686;76;20557;-92
2022/05/28 10:33:35;;;;;;;;;;;17.52;91.55;;;;;;2673009;76;20554;-91
2022/05/28 10:37:07;;;;;;;;;;;17.75;90.30;;;;;;2670859;76;20541;-91
2022/05/28 10:40:40;;;;;;;;;;;17.82;90.89;;;;;;2672060;76;20572;-91
2022/05/28 10:44:16;;;;;;;3.52;0.90;;;18.00;91.88;;;;;;2670350;76;21130;-91
2022/05/28 10:47:53;;;;;;;2.80;0.70;;;17.85;90.31;;;;;;2672059;76;22299;-92
2022/05/28 10:51:28;;;;;;;3.60;0.50;;;17.43;90.11;;;;;;2671600;76;22419;-91
2022/05/28 10:55:01;;;;;;;;;;;17.69;90.50;;;;;;2671560;76;22434;-92
2022/05/28 10:58:33;;;;;;;;;;;17.73;89.38;;;;;;2671559;76;22372;-91
2022/05/28 11:02:05;;;;;;;;;;;17.63;89.03;;;;;;2673254;76;20536;-90
2022/05/28 11:05:38;;;;;;;;;;;17.70;88.05;;;;;;2673494;76;21237;-91
2022/05/28 11:09:30;;;;;;;1.87;0.60;;;18.28;87.64;;;;;;2672384;76;20603;-92
2022/05/28 11:13:11;;;;;;;2.55;0.55;;;18.70;86.03;;;;;;2672796;76;22205;-91
2022/05/28 11:16:57;;;;;;;1.22;0.53;;;18.70;86.12;;;;;;2672737;76;22407;-91
2022/05/28 11:20:40;;;;;;;1.60;0.50;;;18.44;85.26;;;;;;2673344;76;22425;-89
2022/05/28 11:24:21;;;;;;;5.28;0.80;;;19.35;83.47;;;;;;2672668;76;22310;-90
2022/05/28 11:28:05;;;;;;;0.30;0.30;;;19.10;83.05;;;;;;2673827;76;22285;-90
2022/05/28 11:31:48;;;;;;;6.47;0.90;;;18.77;84.47;;;;;;2672445;76;22975;-91
2022/05/28 11:35:26;;;;;;;2.70;1.35;;;18.95;85.22;;;;;;2672858;76;22844;-90
2022/05/28 11:39:01;;;;;;;3.00;0.50;;;19.51;83.61;;;;;;2672601;76;22681;-91
2022/05/28 11:42:33;;;;;;;;;;;19.60;81.14;;;;;;2671915;76;22823;-90
2022/05/28 11:46:06;;;;;;;;;;;19.56;80.43;;;;;;2673279;76;22406;-90
2022/05/28 11:53:37;;;;;;;4.62;0.80;;;19.45;80.19;;;;;;2670727;76;20412;-89
2022/05/28 11:57:12;;;;;;;2.10;0.45;;;19.46;81.30;;;;;;2671852;76;22440;-90
2022/05/28 12:00:45;;;;;;;;;;;19.51;79.97;;;;;;2672078;76;22492;-89
2022/05/28 12:04:17;;;;;;;;;;;19.87;79.26;;;;;;2671239;76;20991;-89
2022/05/28 12:07:50;;;;;;;;;;;20.12;79.23;;;;;;2671975;76;20546;-90
2022/05/28 12:11:22;;;;;;;;;;;20.55;78.66;;;;;;2671899;76;20539;-89
2022/05/28 12:15:03;;;;;;;1.40;0.50;;;21.07;77.05;;;;;;2671971;76;21127;-89
2022/05/28 12:18:36;;;;;;;3.97;1.03;;;21.50;77.28;;;;;;2673082;76;22388;-90
2022/05/28 12:22:08;;;;;;;;;;;21.58;78.70;;;;;;2672125;76;22487;-89
2022/05/28 12:25:41;;;;;;;;;;;21.92;76.77;;;;;;2672920;76;20487;-88
2022/05/28 12:29:14;;;;;;;;;;;22.09;75.50;;;;;;2672513;76;20535;-87
2022/05/28 12:32:49;;;;;;;4.58;1.02;;;22.53;75.01;;;;;;2672473;76;21063;-87
2022/05/28 12:36:22;;;;;;;;;;;22.35;74.64;;;;;;2673220;76;22391;-87
2022/05/28 12:39:54;;;;;;;;;;;22.33;74.46;;;;;;2672583;76;22423;-88
2022/05/28 12:43:27;;;;;;;;;;;22.27;73.13;;;;;;2672939;76;20429;-88
2022/05/28 12:46:59;;;;;;;;;;;22.19;73.28;;;;;;2673176;76;20509;-88
2022/05/28 12:50:40;;;;;;;1.25;0.42;;;22.35;72.70;;;;;;2672173;76;21283;-88
2022/05/28 12:54:15;;;;;;;1.65;0.62;;;22.47;72.59;;;;;;2672533;76;22387;-88
2022/05/28 12:57:47;;;;;;;;;;;21.98;72.19;;;;;;2673262;76;22424;-88
2022/05/28 13:01:20;;;;;;;;;;;22.11;71.89;;;;;;2673579;76;20424;-88
2022/05/28 13:04:53;;;;;;;;;;;22.40;72.45;;;;;;2673428;76;20498;-87
2022/05/28 13:08:25;;;;;;;;;;;22.53;72.61;;;;;;2672737;76;20543;-86
2022/05/28 13:12:00;;;;;;;3.10;0.62;;;22.37;71.51;;;;;;2671834;76;21100;-87
2022/05/28 13:15:32;;;;;;;;;;;22.50;70.61;;;;;;2672375;76;22762;-88
2022/05/28 13:19:05;;;;;;;;;;;22.22;70.08;;;;;;2672572;76;22423;-88
2022/05/28 13:22:37;;;;;;;;;;;22.03;70.27;;;;;;2673110;76;20536;-88
2022/05/28 13:26:10;;;;;;;;;;;22.01;70.87;;;;;;2671944;76;21238;-86
2022/05/28 13:29:47;;;;;;;4.35;0.70;;;21.76;71.55;;;;;;2672442;76;20951;-86
2022/05/28 13:33:21;;;;;;;2.60;0.50;;;21.73;72.71;;;;;;2672308;76;22932;-86
2022/05/28 13:36:53;;;;;;;;;;;21.61;72.58;;;;;;2672250;76;22394;-86
2022/05/28 13:40:25;;;;;;;;;;;21.70;71.48;;;;;;2672232;76;21475;-86
2022/05/28 13:44:05;;;;;;;;;;;21.74;70.23;;;;;;2672373;76;20531;-86
2022/05/28 13:47:35;;;;;;;;;;;22.40;70.42;;;;;;2672929;76;20491;-86
2022/05/28 13:51:08;;;;;;;;;;;22.49;70.16;;;;;;2672694;76;21076;-86
2022/05/28 13:54:41;;;;;;;3.75;0.57;;;22.54;70.61;;;;;;2671934;76;21152;-86
2022/05/28 13:58:13;;;;;;;;;;;22.39;71.13;;;;;;2672602;76;22397;-86
2022/05/28 14:01:45;;;;;;;;;;;22.25;71.35;;;;;;2672573;76;20559;-86
2022/05/28 14:05:18;;;;;;;;;;;22.81;71.45;;;;;;2672451;76;20531;-86
2022/05/28 14:08:52;;;;;;;2.60;0.65;;;23.22;70.25;;;;;;2671837;76;21053;-85
2022/05/28 14:12:24;;;;;;;;;;;24.55;69.59;;;;;;2672216;76;22935;-86
2022/05/28 14:15:58;;;;;;;;;;;25.15;68.29;;;;;;2672554;76;20524;-86
2022/05/28 14:19:30;;;;;;;;;;;25.60;66.69;;;;;;2672065;76;20889;-86
2022/05/28 14:23:04;;;;;;;;;;;26.48;66.04;;;;;;2672244;76;20419;-86
2022/05/28 14:26:38;;;;;;;1.77;0.70;;;27.05;64.34;;;;;;2672589;76;21036;-86
2022/05/28 14:30:10;;;;;;;;;;;27.25;62.48;;;;;;2673455;76;22377;-86
2022/05/28 14:33:43;;;;;;;;;;;29.94;60.48;;;;;;2673132;76;20519;-87
2022/05/28 14:37:15;;;;;;;;;;;32.29;57.59;;;;;;2673135;76;20553;-87
2022/05/28 14:40:50;;;;;;;2.50;0.90;;;33.34;55.00;;;;;;2673046;76;20991;-86
2022/05/28 14:44:23;;;;;;;;;;;33.73;52.57;;;;;;2673545;76;22420;-87
2022/05/28 14:47:56;;;;;;;;;;;34.40;51.95;;;;;;2673180;76;22277;-87
2022/05/28 14:51:29;;;;;;;;;;;33.93;51.06;;;;;;2671703;76;20526;-86
2022/05/28 14:55:02;;;;;;;;;;;34.20;51.37;;;;;;2671704;76;20527;-86
2022/05/28 14:58:36;;;;;;;4.87;0.70;;;34.70;49.45;;;;;;2671321;76;21324;-87
2022/05/28 15:02:09;;;;;;;;;;;33.86;49.50;;;;;;2672223;76;23043;-86
2022/05/28 15:05:41;;;;;;;;;;;34.67;48.95;;;;;;2672038;76;20981;-87
2022/05/28 15:09:14;;;;;;;;;;;33.65;48.10;;;;;;2672798;76;20575;-87
2022/05/28 15:12:47;;;;;;;2.70;0.62;;;31.95;48.91;;;;;;2671229;76;21148;-86
2022/05/28 15:16:19;;;;;;;;;;;32.00;50.40;;;;;;2671243;76;22316;-87
2022/05/28 15:19:52;;;;;;;;;;;30.15;51.30;;;;;;2673310;76;20519;-86
2022/05/28 15:23:24;;;;;;;;;;;29.85;52.74;;;;;;2671628;76;20533;-87
2022/05/28 15:26:58;;;;;;;3.20;0.70;;;29.75;52.13;;;;;;2668220;76;21951;-85
2022/05/28 15:30:35;;;;;;;3.35;0.80;;;29.39;53.49;;;;;;2671542;76;22304;-84
2022/05/28 15:34:08;;;;;;;;;;;30.97;53.54;;;;;;2671060;76;22501;-86
2022/05/28 15:37:52;;;;;;;;;;;31.54;51.23;;;;;;2670838;76;20550;-86
2022/05/28 15:41:32;;;;;;;2.08;0.93;;;30.65;52.33;;;;;;2672415;76;20532;-86
2022/05/28 15:45:15;;;;;;;3.77;0.95;;;29.64;53.94;;;;;;2671301;76;22270;-86
2022/05/28 15:48:48;;;;;;;2.00;0.75;;;28.79;54.32;;;;;;2672620;76;22387;-87
2022/05/28 15:52:20;;;;;;;;;;;28.30;55.82;;;;;;2672090;76;22243;-86
2022/05/28 15:55:53;;;;;;;;;;;30.23;55.09;;;;;;2671500;76;20526;-86
2022/05/28 15:59:25;;;;;;;;;;;32.89;52.01;;;;;;2672796;76;20590;-86
2022/05/28 16:03:01;;;;;;;2.10;0.70;;;32.52;50.37;;;;;;2670972;76;21230;-87
2022/05/28 16:06:35;;;;;;;1.40;0.70;;;33.77;50.44;;;;;;2671684;76;22436;-87
2022/05/28 16:10:08;;;;;;;;;;;34.05;48.38;;;;;;2672570;76;22423;-86
2022/05/28 16:13:40;;;;;;;;;;;33.97;47.80;;;;;;2671667;76;20550;-86
2022/05/28 16:17:13;;;;;;;;;;;33.58;48.81;;;;;;2671635;76;20528;-87
2022/05/28 16:20:46;;;;;;;1.62;0.68;;;34.22;48.75;;;;;;2671850;76;21258;-86
2022/05/28 16:24:19;;;;;;;;;;;34.17;48.59;;;;;;2672627;76;22528;-87
2022/05/28 16:27:53;;;;;;;;;;;35.67;48.10;;;;;;2672159;76;20503;-86
2022/05/28 16:31:25;;;;;;;;;;;34.86;46.46;;;;;;2672865;76;20517;-86
2022/05/28 16:34:58;;;;;;;;;;;35.53;46.64;;;;;;2672687;76;20626;-87
2022/05/28 16:38:31;;;;;;;1.70;0.85;;;35.63;46.08;;;;;;2672152;76;21038;-87
2022/05/28 16:42:03;;;;;;;;;;;33.77;46.09;;;;;;2672087;76;22756;-86
2022/05/28 16:45:36;;;;;;;;;;;34.14;47.59;;;;;;2671193;76;20806;-87
2022/05/28 16:49:08;;;;;;;;;;;33.99;47.33;;;;;;2671435;76;20540;-86
2022/05/28 16:52:41;;;;;;;4.55;0.75;;;33.25;47.88;;;;;;2671112;76;21008;-86
2022/05/28 16:56:14;;;;;;;;;;;29.58;51.45;;;;;;2672014;76;22360;-86
2022/05/28 16:59:46;;;;;;;;;;;30.62;52.24;;;;;;2672161;76;20532;-86
2022/05/28 17:03:19;;;;;;;;;;;31.42;50.84;;;;;;2671885;76;20999;-87
2022/05/28 17:06:54;;;;;;;3.72;1.12;;;32.23;49.84;;;;;;2671290;76;21028;-86
2022/05/28 17:10:26;;;;;;;;;;;31.16;49.66;;;;;;2671709;76;22876;-85
2022/05/28 17:13:58;;;;;;;;;;;26.85;51.94;;;;;;2671609;76;22583;-86
2022/05/28 17:17:31;;;;;;;;;;;24.00;56.55;;;;;;2671855;76;20534;-86
2022/05/28 17:21:03;;;;;;;;;;;23.92;57.92;;;;;;2672430;76;21364;-85
2022/05/28 17:24:37;;;;;;;1.75;0.88;;;24.53;59.54;;;;;;2670561;76;20531;-86
2022/05/28 17:28:10;;;;;;;;;;;23.51;58.84;;;;;;2672363;76;22400;-85
2022/05/28 17:31:45;;;;;;;;;;;22.09;60.00;;;;;;2672540;76;20489;-86
2022/05/28 17:35:16;;;;;;;;;;;21.13;62.53;;;;;;2671755;76;20508;-86
2022/05/28 17:38:49;;;;;;;;;;;20.30;63.90;;;;;;2672058;76;20494;-86
2022/05/28 17:42:22;;;;;;;2.33;0.60;;;19.68;64.60;;;;;;2671530;76;21235;-86
2022/05/28 17:45:54;;;;;;;;;;;19.09;66.35;;;;;;2671860;76;22523;-86
2022/05/28 17:49:27;;;;;;;;;;;18.61;67.06;;;;;;2672410;76;20421;-86
2022/05/28 17:52:59;;;;;;;;;;;18.35;68.20;;;;;;2671584;76;20515;-86
2022/05/28 17:56:33;;;;;;;3.33;0.98;;;17.99;68.17;;;;;;2671346;76;20991;-86
2022/05/28 18:00:06;;;;;;;;;;;17.63;68.92;;;;;;2672118;76;22441;-86
2022/05/28 18:03:39;;;;;;;;;;;17.43;69.91;;;;;;2672445;76;20837;-86
2022/05/28 18:07:11;;;;;;;;;;;17.22;71.96;;;;;;2671678;76;20547;-86
2022/05/28 18:10:44;;;;;;;3.15;1.30;;;17.18;72.34;;;;;;2670279;76;21181;-84
2022/05/28 18:14:18;;;;;;;2.72;0.72;;;16.85;72.87;;;;;;2670218;76;23106;-84
2022/05/28 18:17:51;;;;;;;;;;;16.64;73.28;;;;;;2671148;76;22282;-84
2022/05/28 18:21:24;;;;;;;;;;;16.42;73.36;;;;;;2671229;76;20550;-84
2022/05/28 18:24:56;;;;;;;;;;;16.22;73.67;;;;;;2670893;76;20511;-84
2022/05/28 18:28:29;;;;;;;6.03;1.25;;;16.00;74.87;;;;;;2669796;76;21050;-83
2022/05/28 18:32:02;;;;;;;;;;;15.80;75.79;;;;;;2671287;76;22284;-89
2022/05/28 18:35:35;;;;;;;;;;;15.58;76.50;;;;;;2671901;76;20546;-90
2022/05/28 18:39:07;;;;;;;;;;;15.42;77.27;;;;;;2671287;76;20538;-89
2022/05/28 18:42:40;;;;;;;1.95;0.68;;;15.26;78.02;;;;;;2671314;76;21122;-90
2022/05/28 18:46:13;;;;;;;;;;;15.06;78.63;;;;;;2670026;76;22309;-90
2022/05/28 18:49:45;;;;;;;;;;;14.80;79.41;;;;;;2671221;76;20518;-90
2022/05/28 18:57:16;;;;;;;4.83;0.70;;;14.24;81.75;;;;;;2671077;76;20392;-90
2022/05/28 19:00:46;;;;;;;2.55;0.40;;;14.03;83.02;;;;;;2671173;76;22331;-89
2022/05/28 19:04:18;;;;;;;;;;;13.83;84.32;;;;;;2671397;76;22316;-92
2022/05/28 19:07:51;;;;;;;;;;;13.63;85.84;;;;;;2671514;76;20409;-90
2022/05/28 19:11:23;;;;;;;;;;;13.45;87.08;;;;;;2672159;76;20514;-91
2022/05/28 19:14:57;;;;;;;4.83;0.62;;;13.32;88.25;;;;;;2671841;76;21135;-90
2022/05/28 19:18:30;;;;;;;;;;;13.14;89.14;;;;;;2671922;76;22886;-91
2022/05/28 19:22:02;;;;;;;;;;;12.99;90.08;;;;;;2672558;76;20557;-90
2022/05/28 19:29:27;;;;;;;5.37;2.08;;;12.67;91.77;;;;;;2671508;76;20383;-90
2022/05/28 19:33:00;;;;;;;;;;;12.56;92.51;;;;;;2671899;76;22595;-91
2022/05/28 19:36:32;;;;;;;;;;;12.46;93.20;;;;;;2671292;76;22348;-87
2022/05/28 19:40:05;;;;;;;;;;;12.35;93.93;;;;;;2670558;76;20593;-90
2022/05/28 19:43:37;;;;;;;;;;;12.23;94.65;;;;;;2671430;76;21168;-90
2022/05/28 19:47:11;;;;;;;7.60;2.25;;;12.12;95.25;;;;;;2669919;76;20387;-90
2022/05/28 19:50:43;;;;;;;;;;;12.01;95.96;;;;;;2671263;76;22327;-90
2022/05/28 19:54:16;;;;;;;;;;;11.91;96.61;;;;;;2671729;76;20605;-90
2022/05/28 19:57:50;;;;;;;;;;;11.84;97.32;;;;;;2671123;76;20419;-89
2022/05/28 20:01:27;;;;;;;;;;;11.72;97.89;;;;;;2671203;76;20559;-90
2022/05/28 20:04:57;;;;;;;3.35;1.35;;;11.66;98.58;;;;;;2671405;76;21083;-89
2022/05/28 20:08:30;;;;;;;;;;;11.54;99.19;;;;;;2670794;76;22361;-90
2022/05/28 20:12:03;;;;;;;;;;;11.42;99.70;;;;;;2670740;76;20524;-90
2022/05/28 20:15:35;;;;;;;;;;;11.30;100.21;;;;;;2671265;76;20533;-90